LGSA/CHQ METAR and TAF weather

Enter ICAO airport designator
Station Type Date Time Source
LGSA METAR 2021/05/11 21:50 UTC NOAA

LGSA 112150Z VRB03KT CAVOK 14/11 Q1012


Station Type Date Time Source
LGSA Decoded METAR 2021/05/11 21:50 UTC NOAA

Souda Airport , Greece (LGSA) 35-29N 024-07E 151M
May 11, 2021 - 05:50 PM EDT / 2021.05.11 2150 UTC
Wind: Variable at 3 MPH (3 KT):0
Visibility: greater than 7 mile(s):0
Temperature: 57 F (14 C)
Dew Point: 51 F (11 C)
Relative Humidity: 82%
Pressure (altimeter): 29.88 in. Hg (1012 hPa)
ob: LGSA 112150Z VRB03KT CAVOK 14/11 Q1012
cycle: 22

Station Type Date Time Source
LGSA TAF 2021/05/11 18:12 UTC NOAA

TAF LGSA 111700Z 1118/1218 VRB05KT 9999 FEW025
TEMPO 1200/1203 33007KT

Example: see airport list